Airfield :
LOGIN :

Register | Disclaimer

   EN    FR    IT 

 










Legend :    VFR   Marginal VFR   IFR   Intensive IFR   Very Intensive IFR
Visi :
Ceiling :
>= 8 km
>= 3000ft
5 to 8 km
1000 to 3000 ft
1500m to 5 km
500 to 1000 ft
800 to 1500m
200 to 500 ft
< 800m
< 200 ft
Symbols :   Thunderstorms  Fog  Heavy snow  Heavy precipitations  Wind > 20 kt
SIGMETs :     Misc.  Thunderstorms  Icing  Turbulence  Mountain Waves  Volcanic Ashes







- Airport Elevation : 197 ft
- IATA code : XOG
- Download approach charts


LFMO - Orange

CURRENT METAR :
  • 251200Z AUTO 16010KT 130V200 9999 FEW054/// BKN140/// BKN160/// 20/07 Q1010 NOSIG

EXPIRED METARs :
  • 251130Z AUTO 18010KT 140V230 9999 SCT058 BKN130 19/08 Q1011 NOSIG
  • 251100Z AUTO 18008KT 130V220 9999 FEW046/// SCT060/// BKN140/// 19/07 Q1011 NOSIG
  • 251030Z AUTO 17007KT 110V240 9999 FEW042/// BKN050/// 19/08 Q1012 NOSIG

TAF TAF LFMO
Valid from the 25 at 09:00 until the 26 at 09:00 UTC


250800Z 2509/2609 21005KT CAVOK
BECMG 2512/2514 19015KT
TEMPO 2515/2604 19015G25KT
BECMG 2520/2522 4000 RA SCT020TCU BKN050
TEMPO 2522/2609 3000 BKN005
No reported NOTAMs for that airfield.



MET'MAP, your aeronautical weather chart ! - Copyright ORBIFLY December 2007 - Disclaimer

ORBIFLY MET'MAP TEAM :

Programming & Development : Alexandra Zaïnal
Concept & Development : Baudouin d'Aumeries
Co-Development & Prog : Marc-Olivier Méhu
Technical & hardware support : Manuel Goepfert

Contact : metmap@orbifly.com




SOURCES & CREDITS :

   NOAA